Time;durP1;ratioP1;P1;durP2;ratioP2;P2;SDS_P1;SDS_P2;PMS_P1;PMS_P2;Temp;Humidity;BMP_temperature;BMP_pressure;BME280_temperature;BME280_humidity;BME280_pressure;Samples;Min_cycle;Max_cycle;Signal;HPM_P1;HPM_P2
2023/12/03 00:01:08;;;;;;;4.10;3.63;;;-3.00;99.90;;;;;;5049654;28;20547;-72
2023/12/03 00:03:35;;;;;;;4.22;3.30;;;-2.90;99.90;;;;;;5054534;28;20196;-72
2023/12/03 00:06:02;;;;;;;5.22;4.93;;;-2.90;99.90;;;;;;5048413;28;20600;-72
2023/12/03 00:08:28;;;;;;;5.38;4.07;;;-2.90;99.90;;;;;;5050504;28;20229;-71
2023/12/03 00:10:55;;;;;;;5.50;4.50;;;-2.90;99.90;;;;;;5056168;28;20210;-71
2023/12/03 00:13:22;;;;;;;7.90;3.95;;;-2.90;99.90;;;;;;5037894;28;20673;-71
2023/12/03 00:15:50;;;;;;;2.92;2.45;;;-2.80;99.90;;;;;;5046109;28;20196;-72
2023/12/03 00:18:17;;;;;;;5.88;4.93;;;-2.80;99.90;;;;;;5038462;28;20209;-72
2023/12/03 00:20:44;;;;;;;5.47;3.28;;;-2.80;99.90;;;;;;5046684;28;20216;-72
2023/12/03 00:23:11;;;;;;;5.07;3.08;;;-2.80;99.90;;;;;;5043543;28;20205;-71
2023/12/03 00:25:38;;;;;;;5.07;4.13;;;-2.80;99.90;;;;;;5045926;28;20203;-72
2023/12/03 00:28:05;;;;;;;3.63;3.33;;;-2.80;99.90;;;;;;5046004;28;20596;-71
2023/12/03 00:30:32;;;;;;;4.13;2.72;;;-2.80;99.90;;;;;;5048526;28;20211;-72
2023/12/03 00:33:00;;;;;;;6.68;4.45;;;-2.80;99.90;;;;;;5044875;28;20215;-72
2023/12/03 00:35:26;;;;;;;5.35;3.40;;;-2.90;99.90;;;;;;5047512;28;20199;-72
2023/12/03 00:37:53;;;;;;;8.60;3.03;;;-2.90;99.90;;;;;;5047531;28;20207;-72
2023/12/03 00:40:20;;;;;;;3.15;2.78;;;-2.90;99.90;;;;;;5045889;28;20201;-72
2023/12/03 00:42:47;;;;;;;9.18;4.28;;;-2.90;99.90;;;;;;5047275;28;20218;-72
2023/12/03 00:45:13;;;;;;;3.42;1.90;;;-2.90;99.90;;;;;;5048756;28;20203;-72
2023/12/03 00:47:40;;;;;;;3.83;3.50;;;-2.90;99.90;;;;;;5052468;28;20240;-72
2023/12/03 00:50:09;;;;;;;6.15;5.07;;;-2.80;99.90;;;;;;5048288;28;20226;-72
2023/12/03 00:52:36;;;;;;;5.50;4.90;;;-2.80;99.90;;;;;;5047566;28;20192;-72
2023/12/03 00:55:03;;;;;;;4.90;4.55;;;-2.90;99.90;;;;;;5045582;28;20207;-72
2023/12/03 00:57:30;;;;;;;7.50;3.17;;;-2.90;99.90;;;;;;5047466;28;20597;-72
2023/12/03 00:59:57;;;;;;;5.38;4.03;;;-2.90;99.90;;;;;;5042523;28;20204;-72
2023/12/03 01:02:24;;;;;;;5.25;3.15;;;-2.90;99.90;;;;;;5047288;28;20216;-72
2023/12/03 01:04:50;;;;;;;4.47;4.03;;;-2.80;99.90;;;;;;5047354;28;20493;-73
2023/12/03 01:07:18;;;;;;;7.57;5.13;;;-2.80;99.90;;;;;;5046320;28;20220;-73
2023/12/03 01:09:45;;;;;;;5.15;2.42;;;-2.90;99.90;;;;;;5042199;28;20201;-72
2023/12/03 01:12:12;;;;;;;5.93;3.60;;;-2.90;99.90;;;;;;5047817;28;20288;-73
2023/12/03 01:14:39;;;;;;;6.40;4.00;;;-2.90;99.90;;;;;;5047132;28;20649;-73
2023/12/03 01:17:06;;;;;;;4.28;3.63;;;-2.90;99.90;;;;;;5041580;28;20654;-72
2023/12/03 01:19:33;;;;;;;8.48;6.43;;;-3.00;99.90;;;;;;5047551;28;20646;-72
2023/12/03 01:21:59;;;;;;;10.85;4.80;;;-3.00;99.90;;;;;;5047660;28;20567;-72
2023/12/03 01:24:28;;;;;;;8.57;4.75;;;-3.00;99.90;;;;;;5045008;28;20207;-71
2023/12/03 01:26:55;;;;;;;14.43;4.80;;;-3.00;99.90;;;;;;5046128;28;20320;-72
2023/12/03 01:29:22;;;;;;;6.35;4.15;;;-3.00;99.90;;;;;;5045848;28;20201;-71
2023/12/03 01:31:48;;;;;;;8.48;3.97;;;-3.00;99.90;;;;;;5044267;28;20620;-72
2023/12/03 01:34:15;;;;;;;5.15;4.28;;;-2.80;99.90;;;;;;5039034;28;20205;-72
2023/12/03 01:36:42;;;;;;;5.10;4.10;;;-2.80;99.90;;;;;;5044363;28;20196;-72
2023/12/03 01:39:09;;;;;;;6.78;4.45;;;-2.80;99.90;;;;;;5038011;28;20537;-72
2023/12/03 01:41:37;;;;;;;7.05;4.57;;;-2.90;99.90;;;;;;5046059;28;20284;-71
2023/12/03 01:44:04;;;;;;;3.28;2.85;;;-2.90;99.90;;;;;;5046762;28;20193;-72
2023/12/03 01:46:31;;;;;;;8.45;5.07;;;-2.80;99.90;;;;;;5038772;28;20658;-72
2023/12/03 01:48:57;;;;;;;4.95;4.00;;;-2.90;99.90;;;;;;5048709;28;20247;-71
2023/12/03 01:51:24;;;;;;;3.87;3.50;;;-2.90;99.90;;;;;;5044850;28;20208;-72
2023/12/03 01:53:52;;;;;;;4.18;3.47;;;-3.00;99.90;;;;;;5051082;28;20630;-73
2023/12/03 01:56:20;;;;;;;3.05;2.60;;;-3.00;99.90;;;;;;5045348;28;20305;-72
2023/12/03 01:58:48;;;;;;;5.28;4.65;;;-2.90;99.90;;;;;;5045686;28;20211;-71
2023/12/03 02:01:15;;;;;;;5.47;3.80;;;-2.90;99.90;;;;;;5046215;28;20637;-71
2023/12/03 02:03:41;;;;;;;5.15;3.75;;;-2.80;99.90;;;;;;5040104;28;20215;-72
2023/12/03 02:06:09;;;;;;;4.28;3.55;;;-2.90;99.90;;;;;;5045995;28;20204;-72
2023/12/03 02:08:37;;;;;;;4.22;3.67;;;-2.90;99.90;;;;;;5045892;28;20254;-72
2023/12/03 02:11:06;;;;;;;5.75;2.97;;;-2.90;99.90;;;;;;5045011;28;20606;-72
2023/12/03 02:13:34;;;;;;;6.57;5.55;;;-2.90;99.90;;;;;;5038985;28;20196;-72
2023/12/03 02:16:03;;;;;;;5.55;3.47;;;-2.90;99.90;;;;;;5045026;28;20786;-72
2023/12/03 02:18:33;;;;;;;7.03;3.78;;;-3.00;99.90;;;;;;5045936;28;20208;-72
2023/12/03 02:21:01;;;;;;;3.70;3.38;;;-3.00;99.90;;;;;;5046717;28;20689;-72
2023/12/03 02:23:31;;;;;;;4.00;3.25;;;-2.80;99.90;;;;;;5037897;28;20193;-72
2023/12/03 02:25:58;;;;;;;3.28;3.03;;;-2.70;99.90;;;;;;5045500;28;20582;-72
2023/12/03 02:28:27;;;;;;;3.42;3.22;;;-2.80;99.90;;;;;;5044670;28;20224;-72
2023/12/03 02:30:54;;;;;;;8.05;3.85;;;-2.90;99.90;;;;;;5044464;28;20228;-72
2023/12/03 02:33:21;;;;;;;4.35;3.90;;;-2.90;99.90;;;;;;5045538;28;20197;-72
2023/12/03 02:35:48;;;;;;;3.10;2.83;;;-3.00;99.90;;;;;;5037775;28;20866;-72
2023/12/03 02:38:16;;;;;;;4.00;2.67;;;-2.80;99.90;;;;;;5046830;28;20200;-72
2023/12/03 02:40:45;;;;;;;2.72;2.53;;;-2.80;99.90;;;;;;5044875;28;20205;-72
2023/12/03 02:43:12;;;;;;;7.75;4.10;;;-2.80;99.90;;;;;;5036335;28;20192;-71
2023/12/03 02:45:39;;;;;;;4.93;3.00;;;-2.80;99.90;;;;;;5037617;28;20667;-72
2023/12/03 02:48:06;;;;;;;4.28;2.80;;;-2.90;99.90;;;;;;5049972;28;20227;-72
2023/12/03 02:50:33;;;;;;;3.40;3.03;;;-2.90;99.90;;;;;;5045269;28;20200;-72
2023/12/03 02:53:01;;;;;;;3.95;2.75;;;-3.00;99.90;;;;;;5045619;28;20196;-72
2023/12/03 02:55:28;;;;;;;2.97;2.78;;;-3.00;99.90;;;;;;5051057;28;20192;-72
2023/12/03 02:57:56;;;;;;;6.28;3.00;;;-3.00;99.90;;;;;;5040386;28;20251;-72
2023/12/03 03:00:23;;;;;;;3.75;2.20;;;-3.00;99.90;;;;;;5040110;28;20200;-72
2023/12/03 03:02:51;;;;;;;3.63;3.42;;;-2.70;99.90;;;;;;5042853;28;20209;-72
2023/12/03 03:05:19;;;;;;;7.50;3.17;;;-2.90;99.90;;;;;;5044156;28;20678;-72
2023/12/03 03:07:46;;;;;;;7.45;3.42;;;-2.80;99.90;;;;;;5045114;28;20635;-72
2023/12/03 03:10:14;;;;;;;4.25;2.35;;;-2.90;99.90;;;;;;5043744;28;20281;-72
2023/12/03 03:12:41;;;;;;;2.80;2.40;;;-2.80;99.90;;;;;;5044563;28;20292;-72
2023/12/03 03:15:11;;;;;;;15.73;6.55;;;-2.90;99.90;;;;;;5044936;28;20201;-73
2023/12/03 03:17:39;;;;;;;7.93;5.88;;;-3.00;99.90;;;;;;5043041;28;20199;-72
2023/12/03 03:20:08;;;;;;;3.30;2.50;;;-3.00;99.90;;;;;;5042770;28;20192;-73
2023/12/03 03:22:36;;;;;;;3.83;2.63;;;-2.90;99.90;;;;;;5045146;28;20212;-72
2023/12/03 03:25:05;;;;;;;4.43;2.70;;;-3.00;99.90;;;;;;5043237;28;20211;-72
2023/12/03 03:27:33;;;;;;;4.30;3.13;;;-3.00;99.90;;;;;;5045252;28;20237;-72
2023/12/03 03:30:01;;;;;;;3.75;3.08;;;-2.90;99.90;;;;;;5045330;28;20270;-73
2023/12/03 03:32:31;;;;;;;4.65;4.20;;;-2.90;99.90;;;;;;5045377;28;20589;-72
2023/12/03 03:34:58;;;;;;;4.07;3.25;;;-2.80;99.90;;;;;;5042473;28;20279;-73
2023/12/03 03:37:24;;;;;;;5.65;3.53;;;-2.70;99.90;;;;;;5038646;28;20197;-73
2023/12/03 03:39:51;;;;;;;2.60;2.40;;;-2.80;99.90;;;;;;5045605;28;20201;-72
2023/12/03 03:42:18;;;;;;;3.45;3.25;;;-2.70;99.90;;;;;;5045748;28;20314;-73
2023/12/03 03:44:45;;;;;;;5.95;3.67;;;-2.70;99.90;;;;;;5044504;28;20200;-72
2023/12/03 03:47:13;;;;;;;4.30;2.13;;;-2.60;99.90;;;;;;5046445;28;20234;-73
2023/12/03 03:49:42;;;;;;;5.30;3.38;;;-2.60;99.90;;;;;;5046299;28;20204;-72
2023/12/03 03:52:09;;;;;;;7.47;4.60;;;-2.80;99.90;;;;;;5039071;28;20228;-73
2023/12/03 03:54:40;;;;;;;3.05;2.80;;;-2.90;99.90;;;;;;5047163;28;20572;-73
2023/12/03 03:57:06;;;;;;;5.88;4.20;;;-2.90;99.90;;;;;;5037507;28;20192;-73
2023/12/03 03:59:33;;;;;;;6.57;4.13;;;-3.10;99.40;;;;;;5042697;28;20204;-72
2023/12/03 04:02:00;;;;;;;5.53;4.03;;;-3.10;99.70;;;;;;5045618;28;20204;-72
2023/12/03 04:04:27;;;;;;;2.50;2.30;;;-3.00;99.90;;;;;;5043730;28;20205;-72
2023/12/03 04:06:55;;;;;;;8.63;5.97;;;-2.90;99.90;;;;;;5045643;28;20203;-73
2023/12/03 04:09:22;;;;;;;4.13;3.80;;;-2.80;99.90;;;;;;5038767;28;20239;-73
2023/12/03 04:11:48;;;;;;;3.80;2.30;;;-2.90;99.90;;;;;;5045364;28;20247;-72
2023/12/03 04:14:17;;;;;;;4.25;2.60;;;-3.00;99.90;;;;;;5044800;28;20206;-73
2023/12/03 04:16:44;;;;;;;5.53;2.92;;;-3.10;99.90;;;;;;5046165;28;20200;-72
2023/12/03 04:19:11;;;;;;;4.18;3.40;;;-3.20;99.90;;;;;;5044911;28;20200;-72
2023/12/03 04:21:39;;;;;;;5.28;2.72;;;-3.20;99.90;;;;;;5043214;28;20212;-72
2023/12/03 04:24:08;;;;;;;3.53;3.25;;;-3.10;99.90;;;;;;5049239;28;20205;-73
2023/12/03 04:26:35;;;;;;;4.25;3.35;;;-3.00;99.90;;;;;;5044493;28;20667;-72
2023/12/03 04:29:03;;;;;;;8.25;3.38;;;-3.30;99.90;;;;;;5046948;28;20286;-72
2023/12/03 04:31:30;;;;;;;6.32;3.78;;;-3.40;99.90;;;;;;5044654;28;20200;-73
2023/12/03 04:33:57;;;;;;;5.60;4.05;;;-3.50;99.90;;;;;;5048218;28;20201;-72
2023/12/03 04:36:27;;;;;;;3.67;3.20;;;-3.60;99.90;;;;;;5036316;28;20197;-72
2023/12/03 04:38:54;;;;;;;3.75;3.45;;;-3.60;99.90;;;;;;5046582;28;20270;-73
2023/12/03 04:41:22;;;;;;;7.38;4.07;;;-3.60;99.90;;;;;;5047455;28;20201;-73
2023/12/03 04:43:49;;;;;;;7.63;4.20;;;-3.80;99.90;;;;;;5047443;28;20205;-73
2023/12/03 04:46:16;;;;;;;3.95;3.33;;;-3.90;99.90;;;;;;5047438;28;20560;-73
2023/12/03 04:48:43;;;;;;;4.88;3.80;;;-3.90;99.90;;;;;;5051400;28;20590;-73
2023/12/03 04:51:11;;;;;;;3.63;3.33;;;-4.00;99.90;;;;;;5043011;28;20212;-73
2023/12/03 04:53:38;;;;;;;5.60;3.53;;;-3.90;99.90;;;;;;5042079;28;20283;-73
2023/12/03 04:56:06;;;;;;;6.82;3.35;;;-3.90;99.90;;;;;;5045048;28;20706;-72
2023/12/03 04:58:34;;;;;;;7.45;3.97;;;-3.80;99.90;;;;;;5047642;28;20197;-72
2023/12/03 05:01:02;;;;;;;8.55;3.83;;;-4.10;99.90;;;;;;5041093;28;20211;-72
2023/12/03 05:03:28;;;;;;;3.95;3.65;;;-4.20;99.90;;;;;;5039092;28;20283;-73
2023/12/03 05:05:55;;;;;;;5.55;4.38;;;-4.10;99.90;;;;;;5047542;28;20543;-73
2023/12/03 05:08:22;;;;;;;4.22;3.60;;;-4.10;99.90;;;;;;5048089;28;20622;-73
2023/12/03 05:10:49;;;;;;;3.15;2.85;;;-4.10;99.90;;;;;;5047756;28;20208;-73
2023/12/03 05:13:16;;;;;;;2.92;2.70;;;-4.30;99.90;;;;;;5045306;28;20201;-73
2023/12/03 05:15:44;;;;;;;4.65;3.28;;;-4.30;99.90;;;;;;5046559;28;20209;-72
2023/12/03 05:18:11;;;;;;;7.53;4.07;;;-4.30;99.90;;;;;;5047236;28;20208;-72
2023/12/03 05:20:37;;;;;;;2.80;2.55;;;-4.30;99.90;;;;;;5046586;28;20574;-72
2023/12/03 05:23:04;;;;;;;4.50;2.95;;;-4.50;99.90;;;;;;5046710;28;20200;-73
2023/12/03 05:25:31;;;;;;;5.03;4.25;;;-4.60;99.80;;;;;;5043205;28;20206;-73
2023/12/03 05:27:58;;;;;;;8.90;3.92;;;-4.60;99.80;;;;;;5046469;28;20208;-73
2023/12/03 05:30:25;;;;;;;2.15;2.03;;;-4.70;99.70;;;;;;5046846;28;20197;-72
2023/12/03 05:32:53;;;;;;;4.57;4.18;;;-4.70;99.90;;;;;;5047807;28;20208;-73
2023/12/03 05:35:20;;;;;;;3.63;2.92;;;-4.50;99.90;;;;;;5041083;28;20578;-73
2023/12/03 05:37:47;;;;;;;3.78;2.97;;;-4.50;99.90;;;;;;5041706;28;20215;-73
2023/12/03 05:40:14;;;;;;;3.80;2.90;;;-4.50;99.90;;;;;;5046347;28;20212;-73
2023/12/03 05:42:40;;;;;;;5.32;4.82;;;-4.60;99.90;;;;;;5045175;28;20211;-73
2023/12/03 05:45:08;;;;;;;2.85;2.60;;;-4.60;99.90;;;;;;5043844;28;20326;-72
2023/12/03 05:47:35;;;;;;;3.47;3.28;;;-4.60;99.90;;;;;;5050332;28;20357;-72
2023/12/03 05:50:04;;;;;;;4.28;3.97;;;-4.60;99.90;;;;;;5046374;28;20228;-73
2023/12/03 05:52:31;;;;;;;4.00;3.65;;;-4.60;99.90;;;;;;5043201;28;20197;-73
2023/12/03 05:54:58;;;;;;;5.97;4.05;;;-4.60;99.90;;;;;;5045207;28;20545;-72
2023/12/03 05:57:24;;;;;;;6.82;2.97;;;-4.60;99.90;;;;;;5043413;28;20593;-72
2023/12/03 05:59:52;;;;;;;3.90;2.13;;;-4.60;99.90;;;;;;5046796;28;20209;-73
2023/12/03 06:02:19;;;;;;;3.28;2.78;;;-4.70;99.90;;;;;;5052000;28;20251;-73
2023/12/03 06:04:46;;;;;;;3.00;2.80;;;-4.70;99.90;;;;;;5046098;28;20287;-73
2023/12/03 06:07:14;;;;;;;3.08;2.72;;;-4.80;99.90;;;;;;5045589;28;20204;-73
2023/12/03 06:09:41;;;;;;;3.13;2.97;;;-4.90;99.90;;;;;;5045505;28;20232;-73
2023/12/03 06:12:08;;;;;;;2.42;2.13;;;-5.00;99.80;;;;;;5044260;28;20210;-70
2023/12/03 06:14:35;;;;;;;2.42;2.05;;;-5.00;99.90;;;;;;5045982;28;20666;-71
2023/12/03 06:17:02;;;;;;;2.15;1.95;;;-5.00;99.80;;;;;;5046362;28;20217;-72
2023/12/03 06:19:29;;;;;;;3.47;3.17;;;-4.90;99.90;;;;;;5046040;28;20258;-72
2023/12/03 06:21:57;;;;;;;6.65;3.20;;;-5.00;99.60;;;;;;5043987;28;20207;-72
2023/12/03 06:24:26;;;;;;;9.80;3.40;;;-5.10;99.50;;;;;;5045073;28;20224;-72
2023/12/03 06:26:53;;;;;;;4.93;3.00;;;-5.00;99.60;;;;;;5046073;28;20211;-72
2023/12/03 06:29:20;;;;;;;5.63;3.20;;;-5.00;99.50;;;;;;5045194;28;20224;-72
2023/12/03 06:31:47;;;;;;;58.33;5.90;;;-5.00;99.80;;;;;;5046543;28;20204;-72
2023/12/03 06:34:15;;;;;;;2.10;2.00;;;-5.10;99.90;;;;;;5045344;28;20707;-72
2023/12/03 06:36:42;;;;;;;2.22;1.50;;;-5.10;99.60;;;;;;5040119;28;20208;-72
2023/12/03 06:39:09;;;;;;;4.47;4.18;;;-5.00;99.80;;;;;;5036869;28;20279;-72
2023/12/03 06:41:37;;;;;;;4.13;3.72;;;-5.00;99.70;;;;;;5041038;28;20716;-72
2023/12/03 06:44:04;;;;;;;6.65;3.65;;;-4.90;99.90;;;;;;5036981;28;20211;-73
2023/12/03 06:46:31;;;;;;;5.38;3.83;;;-4.90;99.90;;;;;;5040061;28;20280;-72
2023/12/03 06:48:57;;;;;;;5.75;4.30;;;-4.90;99.90;;;;;;5049222;28;20227;-72
2023/12/03 06:51:24;;;;;;;5.00;3.78;;;-4.90;99.90;;;;;;5039938;28;20209;-72
2023/12/03 06:53:51;;;;;;;2.13;2.03;;;-5.00;99.90;;;;;;5048640;28;20206;-72
2023/12/03 06:56:18;;;;;;;5.28;4.35;;;-5.00;99.90;;;;;;5040955;28;20204;-72
2023/12/03 06:58:46;;;;;;;3.90;3.60;;;-5.10;99.90;;;;;;5044635;28;20231;-72
2023/12/03 07:01:13;;;;;;;5.18;4.78;;;-5.10;99.90;;;;;;5037412;28;20197;-72
2023/12/03 07:03:40;;;;;;;4.47;4.07;;;-5.10;99.90;;;;;;5038145;28;20205;-71
2023/12/03 07:06:07;;;;;;;5.20;3.67;;;-5.10;99.90;;;;;;5040258;28;20201;-73
2023/12/03 07:08:34;;;;;;;7.47;6.18;;;-5.20;99.80;;;;;;5045005;28;20211;-73
2023/12/03 07:11:01;;;;;;;2.10;2.00;;;-5.30;99.30;;;;;;5042801;28;20204;-73
2023/12/03 07:13:28;;;;;;;4.30;3.75;;;-5.40;99.00;;;;;;5039233;28;20831;-73
2023/12/03 07:15:56;;;;;;;4.70;3.45;;;-5.30;99.10;;;;;;5040748;28;20215;-74
2023/12/03 07:18:23;;;;;;;8.55;3.35;;;-5.30;99.30;;;;;;5033071;28;20561;-73
2023/12/03 07:20:50;;;;;;;10.82;4.00;;;-5.20;99.40;;;;;;5032515;28;20286;-73
2023/12/03 07:23:17;;;;;;;6.07;3.40;;;-5.10;99.70;;;;;;5036938;28;20561;-75
2023/12/03 07:25:43;;;;;;;5.57;4.25;;;-5.10;99.90;;;;;;5038403;28;20226;-72
2023/12/03 07:28:10;;;;;;;4.55;3.30;;;-5.00;99.90;;;;;;5035122;28;20313;-72
2023/12/03 07:30:37;;;;;;;4.50;3.47;;;-4.90;99.90;;;;;;5045894;28;20278;-73
2023/12/03 07:33:05;;;;;;;4.28;3.90;;;-4.90;99.90;;;;;;5036728;28;20202;-78
2023/12/03 07:35:32;;;;;;;6.20;2.92;;;-4.90;99.90;;;;;;5036305;28;20201;-83
2023/12/03 07:37:59;;;;;;;3.60;3.30;;;-4.80;99.90;;;;;;5033475;28;20379;-82
2023/12/03 07:40:26;;;;;;;5.18;4.45;;;-4.60;99.90;;;;;;5039396;28;20226;-80
2023/12/03 07:42:53;;;;;;;4.82;3.05;;;-4.60;99.90;;;;;;5040053;28;20225;-79
2023/12/03 07:45:20;;;;;;;6.03;3.75;;;-4.60;99.90;;;;;;5040425;28;20209;-78
2023/12/03 07:47:46;;;;;;;5.45;4.30;;;-4.60;99.90;;;;;;5045753;28;20752;-79
2023/12/03 07:50:15;;;;;;;4.18;3.03;;;-4.60;99.90;;;;;;5051180;28;20385;-83
2023/12/03 07:52:42;;;;;;;6.68;4.75;;;-4.60;99.90;;;;;;5044964;28;20205;-81
2023/12/03 07:55:10;;;;;;;3.53;3.22;;;-4.50;99.90;;;;;;5040580;28;20281;-78
2023/12/03 07:57:36;;;;;;;5.78;4.03;;;-4.50;99.90;;;;;;5040097;28;20274;-78
2023/12/03 08:00:06;;;;;;;3.70;3.35;;;-4.50;99.90;;;;;;5041377;28;20201;-81
2023/12/03 08:02:33;;;;;;;7.20;3.70;;;-4.40;99.90;;;;;;5039409;28;20188;-78
2023/12/03 08:05:00;;;;;;;5.22;4.15;;;-4.50;99.90;;;;;;5042610;28;20284;-82
2023/12/03 08:07:28;;;;;;;5.80;4.70;;;-4.50;99.90;;;;;;5043158;28;20832;-82
2023/12/03 08:09:54;;;;;;;4.30;3.80;;;-4.20;99.90;;;;;;5040173;28;20665;-82
2023/12/03 08:12:21;;;;;;;13.85;5.57;;;-4.20;99.80;;;;;;5041566;28;20222;-71
2023/12/03 08:14:48;;;;;;;5.80;5.28;;;-4.10;99.90;;;;;;5039614;28;20209;-74
2023/12/03 08:17:15;;;;;;;6.07;5.05;;;-4.00;99.90;;;;;;5041094;28;20201;-77
2023/12/03 08:19:42;;;;;;;4.00;3.45;;;-4.00;99.90;;;;;;5036633;28;20208;-78
2023/12/03 08:22:08;;;;;;;4.35;3.95;;;-3.80;99.90;;;;;;5036569;28;20689;-77
2023/12/03 08:24:37;;;;;;;7.18;5.95;;;-3.70;99.90;;;;;;5043955;28;20571;-78
2023/12/03 08:27:04;;;;;;;3.33;3.03;;;-3.60;99.90;;;;;;5038098;28;20195;-77
2023/12/03 08:29:31;;;;;;;4.22;3.72;;;-3.40;99.90;;;;;;5041489;28;20256;-77
2023/12/03 08:31:58;;;;;;;3.55;3.33;;;-3.40;99.90;;;;;;5043651;28;20596;-77
2023/12/03 08:34:26;;;;;;;8.88;5.82;;;-3.30;99.90;;;;;;5045955;28;20649;-81
2023/12/03 08:36:52;;;;;;;3.80;2.88;;;-3.20;99.90;;;;;;5041111;28;20209;-80
2023/12/03 08:39:19;;;;;;;6.53;3.22;;;-3.10;99.70;;;;;;5033006;28;20991;-79
2023/12/03 08:41:47;;;;;;;8.48;4.72;;;-3.10;99.70;;;;;;5045074;28;20200;-80
2023/12/03 08:44:14;;;;;;;5.18;4.72;;;-3.20;99.90;;;;;;5055538;28;20208;-79
2023/12/03 08:46:41;;;;;;;18.98;6.25;;;-3.00;99.90;;;;;;5055865;28;20477;-78
2023/12/03 08:49:08;;;;;;;5.05;3.40;;;-2.90;99.90;;;;;;5048691;28;20210;-78
2023/12/03 08:51:35;;;;;;;5.55;4.97;;;-2.90;99.90;;;;;;5056755;28;20200;-78
2023/12/03 08:54:01;;;;;;;8.90;6.07;;;-2.90;99.90;;;;;;5054068;28;20201;-78
2023/12/03 08:56:28;;;;;;;6.80;4.80;;;-2.80;99.80;;;;;;5052916;28;20215;-80
2023/12/03 08:58:56;;;;;;;4.72;4.28;;;-2.70;99.70;;;;;;5055782;28;20198;-75
2023/12/03 09:01:23;;;;;;;8.13;4.30;;;-2.60;99.80;;;;;;5050721;28;20296;-76
2023/12/03 09:03:50;;;;;;;5.22;4.50;;;-2.60;99.60;;;;;;5054614;28;20226;-76
2023/12/03 09:06:18;;;;;;;12.13;7.60;;;-2.60;99.60;;;;;;5055476;28;20196;-75
2023/12/03 09:08:45;;;;;;;12.27;4.97;;;-2.60;99.50;;;;;;5052138;28;20318;-75
2023/12/03 09:11:11;;;;;;;6.25;5.38;;;-2.50;99.60;;;;;;5049275;28;20299;-75
2023/12/03 09:13:39;;;;;;;7.20;5.30;;;-2.30;99.70;;;;;;5050230;28;20207;-74
2023/12/03 09:16:08;;;;;;;6.65;5.90;;;-2.40;99.40;;;;;;5046131;28;20650;-74
2023/12/03 09:18:38;;;;;;;8.82;6.10;;;-2.40;99.60;;;;;;5050875;28;20207;-73
2023/12/03 09:21:07;;;;;;;4.93;4.35;;;-2.30;99.70;;;;;;5051542;28;20208;-77
2023/12/03 09:23:35;;;;;;;8.25;5.25;;;-2.30;99.70;;;;;;5044551;28;20212;-78
2023/12/03 09:26:01;;;;;;;8.43;5.88;;;-2.20;99.90;;;;;;5043052;28;20221;-79
2023/12/03 09:28:30;;;;;;;10.85;6.20;;;-2.20;99.60;;;;;;5048459;28;20202;-76
2023/12/03 09:30:57;;;;;;;6.93;5.18;;;-2.10;99.90;;;;;;5049809;28;20252;-76
2023/12/03 09:33:26;;;;;;;5.22;4.82;;;-2.00;99.60;;;;;;5050909;28;20287;-76
2023/12/03 09:35:53;;;;;;;8.38;4.50;;;-2.20;99.40;;;;;;5050098;28;20685;-76
2023/12/03 09:38:21;;;;;;;7.32;5.22;;;-2.30;99.70;;;;;;5051016;28;20296;-78
2023/12/03 09:40:49;;;;;;;7.28;6.07;;;-2.10;99.80;;;;;;5054006;28;20253;-76
2023/12/03 09:43:18;;;;;;;6.95;5.28;;;-2.20;99.80;;;;;;5043659;28;20310;-73
2023/12/03 09:45:47;;;;;;;8.80;5.05;;;-2.10;99.90;;;;;;5037365;28;20197;-74
2023/12/03 09:48:14;;;;;;;7.38;4.20;;;-1.90;99.90;;;;;;5038571;28;20523;-75
2023/12/03 09:50:45;;;;;;;7.13;6.45;;;-1.70;99.70;;;;;;5041149;28;20702;-81
2023/12/03 09:53:14;;;;;;;6.75;6.10;;;-0.70;99.90;;;;;;5041276;28;20225;-73
2023/12/03 09:55:42;;;;;;;7.10;5.30;;;-1.90;99.90;;;;;;5047108;28;20213;-75
2023/12/03 09:58:11;;;;;;;7.40;6.45;;;-1.90;99.90;;;;;;5037588;28;20188;-74
2023/12/03 10:00:38;;;;;;;9.60;3.90;;;-1.90;99.80;;;;;;5044743;28;20209;-74
2023/12/03 10:03:06;;;;;;;7.25;5.20;;;-1.80;99.80;;;;;;5037407;28;21126;-76
2023/12/03 10:05:33;;;;;;;4.60;3.25;;;-1.90;99.80;;;;;;5036975;28;20595;-77
2023/12/03 10:08:03;;;;;;;7.85;6.20;;;-2.00;99.90;;;;;;5036927;28;20640;-82
2023/12/03 10:10:32;;;;;;;9.75;6.50;;;-1.90;99.90;;;;;;5037548;28;20208;-84
2023/12/03 10:12:59;;;;;;;3.67;3.17;;;;;;;;;;5039971;28;20210;-87
2023/12/03 10:15:26;;;;;;;7.57;4.43;;;-1.90;99.60;;;;;;5033786;28;20200;-81
2023/12/03 10:17:53;;;;;;;5.20;3.83;;;-1.80;99.90;;;;;;5038020;28;20265;-83
2023/12/03 10:20:26;;;;;;;3.35;3.00;;;-1.70;99.90;;;;;;5034674;28;20208;-85
2023/12/03 10:22:55;;;;;;;5.30;2.83;;;-1.80;99.80;;;;;;5044414;28;20307;-86
2023/12/03 10:25:34;;;;;;;3.85;2.47;;;-1.20;99.90;;;;;;5044599;28;20331;-81
2023/12/03 10:28:02;;;;;;;7.60;4.70;;;-1.60;99.90;;;;;;5043259;28;20611;-77
2023/12/03 10:30:29;;;;;;;3.70;3.30;;;-1.60;99.90;;;;;;5039258;28;20232;-77
2023/12/03 10:32:57;;;;;;;6.07;4.30;;;-1.60;99.90;;;;;;5042763;28;20681;-79
2023/12/03 10:35:24;;;;;;;2.35;2.25;;;-1.40;99.90;;;;;;5034553;28;20248;-78
2023/12/03 10:37:52;;;;;;;6.15;4.65;;;-1.50;99.90;;;;;;5045362;28;20672;-78
2023/12/03 10:40:20;;;;;;;6.10;5.60;;;-1.40;99.90;;;;;;5032425;28;20199;-78
2023/12/03 10:42:48;;;;;;;8.82;4.43;;;-1.50;99.90;;;;;;5043901;28;20204;-78
2023/12/03 10:45:16;;;;;;;4.28;3.78;;;-1.50;99.90;;;;;;5037922;28;20203;-78
2023/12/03 10:47:44;;;;;;;8.57;5.30;;;-1.50;99.90;;;;;;5047917;28;20292;-78
2023/12/03 10:50:12;;;;;;;5.60;4.50;;;-1.20;99.90;;;;;;5030741;28;20273;-78
2023/12/03 10:52:41;;;;;;;6.60;5.20;;;-1.40;99.90;;;;;;5044695;28;20929;-78
2023/12/03 10:55:09;;;;;;;9.45;5.30;;;-1.40;99.80;;;;;;5042032;28;20206;-78
2023/12/03 10:57:47;;;;;;;5.65;5.18;;;-1.30;99.90;;;;;;5038301;28;20722;-78
2023/12/03 11:00:18;;;;;;;7.93;4.68;;;-1.20;99.90;;;;;;5045459;28;20253;-78
2023/12/03 11:02:46;;;;;;;8.27;5.57;;;-1.10;99.80;;;;;;5039352;28;20223;-78
2023/12/03 11:05:23;;;;;;;10.30;6.53;;;-1.00;99.50;;;;;;5039271;28;20200;-78
2023/12/03 11:07:50;;;;;;;5.50;4.82;;;-1.30;99.70;;;;;;5040046;28;20207;-78
2023/12/03 11:10:18;;;;;;;6.63;4.30;;;-1.20;99.90;;;;;;5044533;28;20219;-77
2023/12/03 11:12:46;;;;;;;12.15;6.32;;;-1.30;99.90;;;;;;5044856;28;20200;-77
2023/12/03 11:15:13;;;;;;;10.32;7.13;;;-1.20;99.90;;;;;;5039993;28;20279;-77
2023/12/03 11:17:44;;;;;;;5.13;3.80;;;-1.10;99.80;;;;;;5043948;28;20538;-77
2023/12/03 11:20:15;;;;;;;7.53;4.80;;;-1.20;99.90;;;;;;5033636;28;20295;-77
2023/12/03 11:22:55;;;;;;;10.23;5.35;;;-1.20;99.90;;;;;;5051724;28;20314;-77
2023/12/03 11:25:27;;;;;;;7.65;4.45;;;-1.40;99.90;;;;;;5045453;28;20506;-77
2023/12/03 11:27:55;;;;;;;6.07;4.28;;;-1.50;99.90;;;;;;5051937;28;20439;-77
2023/12/03 11:30:36;;;;;;;6.25;4.15;;;-1.30;99.90;;;;;;5052493;28;20364;-77
2023/12/03 11:33:07;;;;;;;9.93;5.53;;;-1.20;99.90;;;;;;5042027;28;20208;-77
2023/12/03 11:35:34;;;;;;;4.47;3.50;;;-1.20;99.90;;;;;;5045712;28;20216;-77
2023/12/03 11:38:01;;;;;;;9.63;5.22;;;-1.30;99.90;;;;;;5055685;28;20286;-77
2023/12/03 11:40:34;;;;;;;7.20;5.07;;;-1.10;99.90;;;;;;5057498;28;20753;-78
2023/12/03 11:43:01;;;;;;;6.18;5.10;;;-1.00;99.90;;;;;;5051018;28;20205;-77
2023/12/03 11:45:29;;;;;;;5.07;4.10;;;-1.00;99.90;;;;;;5051132;28;20191;-77
2023/12/03 11:48:11;;;;;;;7.50;4.47;;;-0.90;99.90;;;;;;5056336;28;20216;-78
2023/12/03 11:50:39;;;;;;;4.72;3.45;;;-0.90;99.90;;;;;;5047928;28;20239;-78
2023/12/03 11:53:08;;;;;;;6.15;4.20;;;-0.90;99.90;;;;;;5048608;28;20212;-77
2023/12/03 11:55:36;;;;;;;7.40;5.03;;;-0.70;99.60;;;;;;5045203;28;20212;-77
2023/12/03 11:58:04;;;;;;;4.53;3.30;;;-0.80;99.20;;;;;;5048132;28;20536;-77
2023/12/03 12:00:31;;;;;;;5.50;4.18;;;-0.80;99.20;;;;;;5041164;28;20196;-77
2023/12/03 12:02:58;;;;;;;4.10;3.47;;;-0.70;99.40;;;;;;5042093;28;20216;-77
2023/12/03 12:05:26;;;;;;;5.82;3.85;;;-0.70;99.20;;;;;;5047702;28;20216;-77
2023/12/03 12:08:01;;;;;;;3.97;3.60;;;-0.70;99.90;;;;;;5045614;28;20205;-77
2023/12/03 12:10:28;;;;;;;5.55;3.40;;;-0.70;99.60;;;;;;5040933;28;20684;-78
2023/12/03 12:12:57;;;;;;;3.88;3.55;;;-0.60;99.90;;;;;;5046669;28;20195;-77
2023/12/03 12:15:24;;;;;;;8.75;3.78;;;-0.50;99.80;;;;;;5047166;28;20201;-77
2023/12/03 12:17:51;;;;;;;6.53;3.55;;;-0.50;99.70;;;;;;5034218;28;20209;-78
2023/12/03 12:20:26;;;;;;;10.30;5.00;;;-0.60;99.90;;;;;;5032632;28;20209;-78
2023/12/03 12:22:54;;;;;;;5.85;5.07;;;-0.60;99.60;;;;;;5035614;28;20218;-78
2023/12/03 12:25:22;;;;;;;5.18;2.80;;;-0.70;99.50;;;;;;5047823;28;20196;-78
2023/12/03 12:27:50;;;;;;;6.07;4.50;;;-0.70;99.80;;;;;;5040460;28;20224;-78
2023/12/03 12:30:29;;;;;;;5.25;3.80;;;-0.70;99.50;;;;;;5046532;28;20283;-77
2023/12/03 12:33:02;;;;;;;4.82;3.70;;;-0.50;99.70;;;;;;5038251;28;20722;-77
2023/12/03 12:35:32;;;;;;;4.07;3.47;;;-0.30;99.40;;;;;;5044789;28;20266;-77
2023/12/03 12:38:00;;;;;;;9.82;5.07;;;-0.30;99.00;;;;;;5045916;28;20197;-77
2023/12/03 12:40:28;;;;;;;9.15;5.32;;;-0.30;99.10;;;;;;5047426;28;20212;-78
2023/12/03 12:43:05;;;;;;;5.45;4.30;;;-0.40;99.20;;;;;;5041971;28;20202;-77
2023/12/03 12:45:32;;;;;;;6.78;4.20;;;-0.50;99.20;;;;;;5047287;28;20196;-77
2023/12/03 12:47:59;;;;;;;7.68;5.53;;;-0.40;99.60;;;;;;5047840;28;20596;-77